Yoakum, Texas
Current Conditions -  °F | °C
As of 7:51 AM on Friday 31 Oct 2014 (Local Time) from KVCT Reporting Station
Overcast Overcast  
Wind Chill: 67°   Ceiling: 9500
Heat Index: 67°   Visibility: 10mi
Dew Point: 62°   Wind: 10mph
Humidity: 84%   Direction: 10°N
Pressure: 30.16"   Gusts: NA
Location:  29.29°N, 97.15°W
Report Text: KVCT 311251Z 01009KT 10SM FEW070 OVC095 19/17 A3016 RMK AO2 SLP210 T01940167
Loading
Personal Weather Stations






























Interactive Weather Map New forecast layout! Learn more

10-Day Weather Forecast

Advertisements
Track Severe Weather on mobile